createdAt,value
2022-08-02T00:00:40.597Z,15.41
2022-08-02T00:01:27.147Z,15.41
2022-08-02T00:02:13.924Z,15.37
2022-08-02T00:03:00.707Z,15.39
2022-08-02T00:03:47.404Z,15.38
2022-08-02T00:04:33.951Z,15.36
2022-08-02T00:05:21.121Z,15.32
2022-08-02T00:06:07.686Z,15.25
2022-08-02T00:06:54.227Z,15.31
2022-08-02T00:07:41.482Z,15.30
2022-08-02T00:08:28.224Z,15.26
2022-08-02T00:09:15.144Z,15.23
2022-08-02T00:10:02.240Z,15.19
2022-08-02T00:10:49.999Z,15.12
2022-08-02T00:11:36.496Z,15.11
2022-08-02T00:12:23.145Z,15.07
2022-08-02T00:13:09.658Z,15.09
2022-08-02T00:13:56.170Z,15.10
2022-08-02T00:14:42.658Z,15.07
2022-08-02T00:15:29.259Z,15.06
2022-08-02T00:16:16.748Z,15.06
2022-08-02T00:17:07.353Z,15.04
2022-08-02T00:17:53.850Z,15.08
2022-08-02T00:18:40.453Z,15.11
2022-08-02T00:19:30.522Z,15.16
2022-08-02T00:20:18.688Z,15.15
2022-08-02T00:21:05.227Z,15.12
2022-08-02T00:21:51.903Z,15.08
2022-08-02T00:22:38.788Z,15.09
2022-08-02T00:23:25.310Z,15.10
2022-08-02T00:24:29.509Z,15.09
2022-08-02T00:25:16.834Z,15.08
2022-08-02T00:26:03.526Z,15.08
2022-08-02T00:26:50.045Z,15.08
2022-08-02T00:27:36.606Z,15.06
2022-08-02T00:28:27.937Z,15.05
2022-08-02T00:29:15.466Z,15.04
2022-08-02T00:30:03.449Z,15.02
2022-08-02T00:30:58.439Z,14.97
2022-08-02T00:31:45.095Z,14.93
2022-08-02T00:32:31.612Z,14.89
2022-08-02T00:34:28.373Z,14.88
2022-08-02T00:34:28.975Z,14.94
2022-08-02T00:35:17.909Z,14.94
2022-08-02T00:36:04.650Z,14.96
2022-08-02T00:36:51.166Z,15.00
2022-08-02T00:37:41.794Z,14.94
2022-08-02T00:38:29.437Z,14.92
2022-08-02T00:39:35.246Z,14.95
2022-08-02T00:40:23.683Z,14.84
2022-08-02T00:41:17.307Z,14.86
2022-08-02T00:42:04.197Z,14.85
2022-08-02T00:43:08.904Z,14.85
2022-08-02T00:43:55.408Z,14.85
2022-08-02T00:44:43.322Z,14.83
2022-08-02T00:46:02.404Z,14.79
2022-08-02T00:46:37.878Z,14.76
2022-08-02T00:47:24.486Z,14.69
2022-08-02T00:48:12.788Z,14.75
2022-08-02T00:48:59.380Z,14.77
2022-08-02T00:49:45.981Z,14.77
2022-08-02T00:50:34.478Z,14.79
2022-08-02T00:51:21.034Z,14.79
2022-08-02T00:52:07.847Z,14.81
2022-08-02T00:52:54.691Z,14.84
2022-08-02T00:53:41.383Z,14.84
2022-08-02T00:54:28.031Z,14.81
2022-08-02T00:55:17.376Z,14.86
2022-08-02T00:56:06.383Z,14.82
2022-08-02T00:56:52.978Z,14.83
2022-08-02T00:57:39.713Z,14.81
2022-08-02T00:58:26.525Z,14.80
2022-08-02T00:59:13.136Z,14.81
2022-08-02T01:00:01.964Z,14.75
2022-08-02T01:00:48.827Z,14.76
2022-08-02T01:01:56.956Z,14.76
2022-08-02T01:02:44.828Z,14.74
2022-08-02T01:03:31.380Z,14.75
2022-08-02T01:04:17.838Z,14.73
2022-08-02T01:05:16.710Z,14.71
2022-08-02T01:06:18.238Z,14.76
2022-08-02T01:07:12.991Z,14.79
2022-08-02T01:08:00.472Z,14.80
2022-08-02T01:08:47.008Z,14.74
2022-08-02T01:09:33.523Z,14.75
2022-08-02T01:10:20.270Z,14.76
2022-08-02T01:11:07.939Z,14.80
2022-08-02T01:11:54.574Z,14.80
2022-08-02T01:12:41.108Z,14.83
2022-08-02T01:13:27.904Z,14.84
2022-08-02T01:14:15.781Z,14.82
2022-08-02T01:15:07.621Z,14.83
2022-08-02T01:16:09.209Z,14.83
2022-08-02T01:16:58.456Z,14.86
2022-08-02T01:17:47.683Z,14.84
2022-08-02T01:18:47.621Z,14.82
2022-08-02T01:19:52.823Z,14.81
2022-08-02T01:20:57.678Z,14.80
2022-08-02T01:22:21.199Z,14.77
2022-08-02T01:23:43.181Z,14.73
2022-08-02T01:24:59.589Z,14.74
2022-08-02T01:26:03.132Z,14.70
2022-08-02T01:27:00.485Z,14.65
2022-08-02T01:28:16.246Z,14.65
2022-08-02T01:29:28.012Z,14.65
2022-08-02T01:30:16.449Z,14.62
2022-08-02T01:31:14.016Z,14.62
2022-08-02T01:32:09.713Z,14.62
2022-08-02T01:33:03.209Z,14.66
2022-08-02T01:34:02.998Z,14.62
2022-08-02T01:34:55.176Z,14.62
2022-08-02T01:35:50.981Z,14.60
2022-08-02T01:36:43.696Z,14.58
2022-08-02T01:37:41.060Z,14.58
2022-08-02T01:38:39.793Z,14.59
2022-08-02T01:39:33.968Z,14.54
2022-08-02T01:40:32.225Z,14.66
2022-08-02T01:41:24.025Z,14.61
2022-08-02T01:42:12.752Z,14.57
2022-08-02T01:43:01.752Z,14.54
2022-08-02T01:43:52.700Z,14.55
2022-08-02T01:44:43.417Z,14.55
2022-08-02T01:45:35.422Z,14.50
2022-08-02T01:46:24.571Z,14.56
2022-08-02T01:47:17.987Z,14.54
2022-08-02T01:48:07.717Z,14.55
2022-08-02T01:48:57.922Z,14.54
2022-08-02T01:49:53.047Z,14.53
2022-08-02T01:50:42.421Z,14.49
2022-08-02T01:51:49.549Z,14.45
2022-08-02T01:52:53.646Z,14.55
2022-08-02T01:53:45.380Z,14.58
2022-08-02T01:54:35.758Z,14.56
2022-08-02T01:55:35.155Z,14.59
2022-08-02T01:56:36.600Z,14.58
2022-08-02T01:57:26.183Z,14.60
2022-08-02T01:58:18.986Z,14.59
2022-08-02T01:59:10.264Z,14.63
2022-08-02T02:00:01.550Z,14.60
2022-08-02T02:00:51.282Z,14.61
2022-08-02T02:01:40.563Z,14.64
2022-08-02T02:02:31.929Z,14.63
2022-08-02T02:03:21.958Z,14.62
2022-08-02T02:04:10.012Z,14.59
2022-08-02T02:04:59.682Z,14.61
2022-08-02T02:05:52.263Z,14.56
2022-08-02T02:06:44.914Z,14.57
2022-08-02T02:07:34.878Z,14.58
2022-08-02T02:08:29.021Z,14.56
2022-08-02T02:09:16.710Z,14.53
2022-08-02T02:10:06.343Z,14.52
2022-08-02T02:10:57.401Z,14.53
2022-08-02T02:12:14.453Z,14.48
2022-08-02T02:13:08.447Z,14.49
2022-08-02T02:14:00.840Z,14.48
2022-08-02T02:14:51.714Z,14.44
2022-08-02T02:15:49.739Z,14.44
2022-08-02T02:16:38.003Z,14.48
2022-08-02T02:17:52.726Z,14.48
2022-08-02T02:18:41.479Z,14.45
2022-08-02T02:19:30.358Z,14.47
2022-08-02T02:20:20.170Z,14.44
2022-08-02T02:21:07.667Z,14.44
2022-08-02T02:21:57.132Z,14.43
2022-08-02T02:22:45.030Z,14.43
2022-08-02T02:23:35.634Z,14.42
2022-08-02T02:24:22.635Z,14.39
2022-08-02T02:25:11.434Z,14.37
2022-08-02T02:26:01.154Z,14.37
2022-08-02T02:26:52.343Z,14.37
2022-08-02T02:27:48.315Z,14.35
2022-08-02T02:28:39.077Z,14.31
2022-08-02T02:29:30.306Z,14.33
2022-08-02T02:30:17.902Z,14.32
2022-08-02T02:31:12.088Z,14.29
2022-08-02T02:32:01.163Z,14.29
2022-08-02T02:32:51.550Z,14.27
2022-08-02T02:34:05.543Z,14.20
2022-08-02T02:34:55.688Z,14.18
2022-08-02T02:35:44.936Z,14.15
2022-08-02T02:36:34.956Z,14.13
2022-08-02T02:37:23.660Z,14.16
2022-08-02T02:38:16.665Z,14.13
2022-08-02T02:39:11.588Z,14.18
2022-08-02T02:40:02.372Z,14.15
2022-08-02T02:40:50.240Z,14.17
2022-08-02T02:41:39.762Z,14.12
2022-08-02T02:42:31.399Z,14.17
2022-08-02T02:43:19.589Z,14.17
2022-08-02T02:44:10.896Z,14.14
2022-08-02T02:44:59.796Z,14.15
2022-08-02T02:45:47.611Z,14.13
2022-08-02T02:46:36.371Z,14.16
2022-08-02T02:47:40.702Z,14.15
2022-08-02T02:48:29.945Z,14.11
2022-08-02T02:49:20.256Z,14.16
2022-08-02T02:50:08.037Z,14.13
2022-08-02T02:50:55.375Z,14.14
2022-08-02T02:51:44.297Z,14.13
2022-08-02T02:52:32.816Z,14.11
2022-08-02T02:53:21.369Z,14.11
2022-08-02T02:54:33.516Z,14.07
2022-08-02T02:55:19.022Z,14.11
2022-08-02T02:56:06.274Z,14.09
2022-08-02T02:56:54.970Z,14.08
2022-08-02T02:57:44.037Z,14.06
2022-08-02T02:58:32.604Z,14.05
2022-08-02T02:59:19.192Z,14.04
2022-08-02T03:00:10.290Z,14.04
2022-08-02T03:01:15.947Z,14.03
2022-08-02T03:02:05.598Z,14.01
2022-08-02T03:02:53.311Z,13.99
2022-08-02T03:03:41.031Z,13.99
2022-08-02T03:04:55.382Z,13.97
2022-08-02T03:05:36.162Z,13.97
2022-08-02T03:06:23.053Z,13.93
2022-08-02T03:07:10.487Z,13.93
2022-08-02T03:07:57.133Z,13.91
2022-08-02T03:08:43.935Z,13.94
2022-08-02T03:09:30.494Z,13.93
2022-08-02T03:10:16.976Z,13.92
2022-08-02T03:11:04.465Z,13.93
2022-08-02T03:11:55.007Z,13.99
2022-08-02T03:12:41.664Z,13.97
2022-08-02T03:13:33.047Z,13.92
2022-08-02T03:14:20.447Z,13.92
2022-08-02T03:15:08.243Z,13.92
2022-08-02T03:15:55.053Z,13.92
2022-08-02T03:16:46.915Z,13.92
2022-08-02T03:17:45.987Z,13.90
2022-08-02T03:18:41.341Z,13.87
2022-08-02T03:19:33.075Z,13.86
2022-08-02T03:20:22.576Z,13.85
2022-08-02T03:21:14.071Z,13.84
2022-08-02T03:22:00.541Z,13.82
2022-08-02T03:22:47.513Z,13.80
2022-08-02T03:23:35.145Z,13.77
2022-08-02T03:24:28.365Z,13.76
2022-08-02T03:25:18.472Z,13.77
2022-08-02T03:26:05.210Z,13.78
2022-08-02T03:26:51.737Z,13.78
2022-08-02T03:27:39.068Z,13.77
2022-08-02T03:28:25.633Z,13.76
2022-08-02T03:29:12.130Z,13.78
2022-08-02T03:29:58.794Z,13.77
2022-08-02T03:30:45.724Z,13.75
2022-08-02T03:31:32.839Z,13.71
2022-08-02T03:32:20.190Z,13.74
2022-08-02T03:33:06.936Z,13.74
2022-08-02T03:33:55.889Z,13.75
2022-08-02T03:34:42.468Z,13.75
2022-08-02T03:35:29.064Z,13.77
2022-08-02T03:36:21.056Z,13.74
2022-08-02T03:37:08.660Z,13.75
2022-08-02T03:37:57.642Z,13.73
2022-08-02T03:38:46.045Z,13.77
2022-08-02T03:39:34.105Z,13.75
2022-08-02T03:40:21.589Z,13.72
2022-08-02T03:41:11.694Z,13.71
2022-08-02T03:41:59.016Z,13.68
2022-08-02T03:42:46.429Z,13.70
2022-08-02T03:43:33.754Z,13.75
2022-08-02T03:44:20.657Z,13.73
2022-08-02T03:45:10.801Z,13.78
2022-08-02T03:45:59.646Z,13.76
2022-08-02T03:46:47.157Z,13.70
2022-08-02T03:47:34.524Z,13.73
2022-08-02T03:48:34.990Z,13.68
2022-08-02T03:49:22.377Z,13.69
2022-08-02T03:50:12.779Z,13.71
2022-08-02T03:51:00.189Z,13.75
2022-08-02T03:51:47.738Z,13.74
2022-08-02T03:52:34.676Z,13.68
2022-08-02T03:53:22.550Z,13.65
2022-08-02T03:54:10.007Z,13.67
2022-08-02T03:54:57.462Z,13.71
2022-08-02T03:55:44.686Z,13.70
2022-08-02T03:56:32.304Z,13.62
2022-08-02T03:57:19.173Z,13.67
2022-08-02T03:58:06.396Z,13.66
2022-08-02T03:59:06.464Z,13.62
2022-08-02T03:59:52.909Z,13.63
2022-08-02T04:00:39.463Z,13.64
2022-08-02T04:01:27.837Z,13.60
2022-08-02T04:02:14.743Z,13.63
2022-08-02T04:03:01.396Z,13.63
2022-08-02T04:03:48.112Z,13.68
2022-08-02T04:04:34.801Z,13.65
2022-08-02T04:05:21.363Z,13.66
2022-08-02T04:06:08.474Z,13.64
2022-08-02T04:06:54.972Z,13.65
2022-08-02T04:08:32.902Z,13.64
2022-08-02T04:08:52.125Z,13.65
2022-08-02T04:09:38.652Z,13.63
2022-08-02T04:10:25.202Z,13.63
2022-08-02T04:11:30.668Z,13.66
2022-08-02T04:12:17.257Z,13.62
2022-08-02T04:13:03.788Z,13.64
2022-08-02T04:13:50.621Z,13.64
2022-08-02T04:14:37.348Z,13.65
2022-08-02T04:15:24.863Z,13.67
2022-08-02T04:16:21.068Z,13.66
2022-08-02T04:17:11.161Z,13.71
2022-08-02T04:18:02.792Z,13.72
2022-08-02T04:18:59.078Z,13.72
2022-08-02T04:19:47.236Z,13.77
2022-08-02T04:20:36.196Z,13.78
2022-08-02T04:21:48.487Z,13.81
2022-08-02T04:22:55.218Z,13.78
2022-08-02T04:23:46.169Z,13.86
2022-08-02T04:24:39.705Z,13.87
2022-08-02T04:25:35.315Z,13.91
2022-08-02T04:26:28.442Z,13.90
2022-08-02T04:27:48.959Z,13.93
2022-08-02T04:28:27.819Z,13.90
2022-08-02T04:29:18.710Z,13.94
2022-08-02T04:30:07.106Z,13.74
2022-08-02T04:30:58.644Z,13.99
2022-08-02T04:31:46.223Z,13.95
2022-08-02T04:32:33.382Z,14.02
2022-08-02T04:33:19.962Z,14.04
2022-08-02T04:34:06.624Z,14.02
2022-08-02T04:35:18.123Z,14.01
2022-08-02T04:36:01.224Z,14.05
2022-08-02T04:36:48.694Z,14.08
2022-08-02T04:37:37.059Z,14.08
2022-08-02T04:38:23.555Z,14.10
2022-08-02T04:39:10.530Z,14.12
2022-08-02T04:39:57.089Z,14.11
2022-08-02T04:40:55.635Z,14.10
2022-08-02T04:41:44.745Z,14.11
2022-08-02T04:42:31.518Z,14.10
2022-08-02T04:43:18.091Z,14.10
2022-08-02T04:44:04.621Z,14.10
2022-08-02T04:44:52.681Z,14.11
2022-08-02T04:45:40.609Z,14.08
2022-08-02T04:46:27.182Z,14.09
2022-08-02T04:47:15.003Z,14.07
2022-08-02T04:48:05.119Z,14.07
2022-08-02T04:48:52.321Z,14.10
2022-08-02T04:49:39.083Z,14.05
2022-08-02T04:50:25.605Z,14.10
2022-08-02T04:51:12.293Z,14.07
2022-08-02T04:52:00.646Z,14.11
2022-08-02T04:52:47.230Z,14.13
2022-08-02T04:53:33.790Z,14.13
2022-08-02T04:54:21.015Z,14.13
2022-08-02T04:55:07.830Z,14.17
2022-08-02T04:55:54.327Z,14.17
2022-08-02T04:56:43.579Z,14.21
2022-08-02T04:57:52.769Z,14.22
2022-08-02T04:58:40.857Z,14.23
2022-08-02T04:59:27.578Z,14.25
2022-08-02T05:00:14.581Z,14.24
2022-08-02T05:01:02.747Z,14.29
2022-08-02T05:01:49.690Z,14.25
2022-08-02T05:02:36.879Z,14.26
2022-08-02T05:03:23.447Z,14.27
2022-08-02T05:04:09.998Z,14.29
2022-08-02T05:04:56.465Z,14.30
2022-08-02T05:05:42.972Z,14.32
2022-08-02T05:06:29.529Z,14.35
2022-08-02T05:07:16.044Z,14.36
2022-08-02T05:08:03.306Z,14.36
2022-08-02T05:08:52.361Z,14.36
2022-08-02T05:09:40.263Z,14.38
2022-08-02T05:10:28.021Z,14.41
2022-08-02T05:11:14.545Z,14.42
2022-08-02T05:12:01.093Z,14.42
2022-08-02T05:12:49.835Z,14.43
2022-08-02T05:13:36.404Z,14.47
2022-08-02T05:14:43.050Z,14.48
2022-08-02T05:15:33.292Z,14.51
2022-08-02T05:16:21.159Z,14.51
2022-08-02T05:17:18.726Z,14.53
2022-08-02T05:18:08.106Z,14.56
2022-08-02T05:18:54.734Z,14.59
2022-08-02T05:19:41.541Z,14.61
2022-08-02T05:20:28.950Z,14.62
2022-08-02T05:21:15.453Z,14.63
2022-08-02T05:22:03.541Z,14.66
2022-08-02T05:22:50.004Z,14.68
2022-08-02T05:23:36.856Z,14.69
2022-08-02T05:24:23.369Z,14.71
2022-08-02T05:25:10.688Z,14.72
2022-08-02T05:25:57.246Z,14.75
2022-08-02T05:26:43.767Z,14.77
2022-08-02T05:27:30.400Z,14.77
2022-08-02T05:28:17.128Z,14.76
2022-08-02T05:29:06.005Z,14.80
2022-08-02T05:29:56.975Z,14.85
2022-08-02T05:30:44.042Z,14.86
2022-08-02T05:31:30.972Z,14.90
2022-08-02T05:32:18.555Z,14.90
2022-08-02T05:33:05.679Z,14.91
2022-08-02T05:33:52.247Z,14.94
2022-08-02T05:34:39.082Z,14.97
2022-08-02T05:35:25.563Z,15.00
2022-08-02T05:36:12.039Z,15.03
2022-08-02T05:36:58.540Z,15.04
2022-08-02T05:37:48.146Z,15.06
2022-08-02T05:38:36.819Z,15.08
2022-08-02T05:39:23.980Z,15.13
2022-08-02T05:40:25.484Z,15.17
2022-08-02T05:41:12.882Z,15.22
2022-08-02T05:41:59.621Z,15.33
2022-08-02T05:42:46.223Z,15.33
2022-08-02T05:43:33.680Z,15.38
2022-08-02T05:44:20.176Z,15.46
2022-08-02T05:45:07.199Z,15.43
2022-08-02T05:45:53.725Z,15.41
2022-08-02T05:46:40.420Z,15.41
2022-08-02T05:47:26.988Z,15.41
2022-08-02T05:48:13.571Z,15.44
2022-08-02T05:49:00.511Z,15.49
2022-08-02T05:49:48.367Z,15.53
2022-08-02T05:50:40.019Z,15.61
2022-08-02T05:51:38.016Z,15.60
2022-08-02T05:52:32.647Z,15.60
2022-08-02T05:53:40.113Z,15.65
2022-08-02T05:54:39.612Z,15.67
2022-08-02T05:55:47.276Z,15.71
2022-08-02T05:56:45.682Z,15.77
2022-08-02T05:57:51.623Z,15.80
2022-08-02T05:58:53.377Z,15.80
2022-08-02T05:59:58.558Z,15.85
2022-08-02T06:00:45.568Z,15.86
2022-08-02T06:01:40.447Z,15.85
2022-08-02T06:02:50.380Z,15.86
2022-08-02T06:03:44.223Z,15.89
2022-08-02T06:04:49.522Z,15.99
2022-08-02T06:05:41.746Z,16.00
2022-08-02T06:06:32.128Z,16.01
2022-08-02T06:07:22.233Z,16.00
2022-08-02T06:08:10.353Z,16.07
2022-08-02T06:09:06.728Z,16.11
2022-08-02T06:09:55.495Z,16.10
2022-08-02T06:10:44.150Z,16.14
2022-08-02T06:11:42.020Z,16.15
2022-08-02T06:12:54.185Z,16.15
2022-08-02T06:13:45.978Z,16.18
2022-08-02T06:14:33.922Z,16.27
2022-08-02T06:15:20.681Z,16.28
2022-08-02T06:16:07.960Z,16.41
2022-08-02T06:17:05.076Z,16.40
2022-08-02T06:17:52.927Z,16.42
2022-08-02T06:18:42.961Z,16.45
2022-08-02T06:19:50.898Z,16.48
2022-08-02T06:20:38.890Z,16.52
2022-08-02T06:22:31.969Z,16.51
2022-08-02T06:22:40.440Z,16.59
2022-08-02T06:23:29.788Z,16.70
2022-08-02T06:24:22.084Z,16.74
2022-08-02T06:25:50.371Z,16.76
2022-08-02T06:26:21.093Z,16.78
2022-08-02T06:27:08.411Z,16.86
2022-08-02T06:27:55.943Z,16.90
2022-08-02T06:28:45.136Z,16.88
2022-08-02T06:29:38.512Z,16.95
2022-08-02T06:30:25.728Z,17.00
2022-08-02T06:31:13.728Z,17.11
2022-08-02T06:32:01.383Z,17.13
2022-08-02T06:32:52.176Z,17.16
2022-08-02T06:33:39.170Z,17.22
2022-08-02T06:34:25.622Z,17.21
2022-08-02T06:35:13.498Z,17.28
2022-08-02T06:36:21.945Z,17.32
2022-08-02T06:37:10.320Z,17.31
2022-08-02T06:38:00.914Z,17.31
2022-08-02T06:39:04.354Z,17.32
2022-08-02T06:40:01.658Z,17.44
2022-08-02T06:41:04.877Z,17.43
2022-08-02T06:41:55.353Z,17.41
2022-08-02T06:42:56.978Z,17.56
2022-08-02T06:43:43.437Z,17.57
2022-08-02T06:44:49.944Z,17.60
2022-08-02T06:45:37.037Z,17.62
2022-08-02T06:47:09.901Z,17.67
2022-08-02T06:47:30.096Z,17.70
2022-08-02T06:48:17.946Z,17.77
2022-08-02T06:49:04.849Z,17.78
2022-08-02T06:49:54.158Z,17.87
2022-08-02T06:50:42.272Z,17.88
2022-08-02T06:51:29.837Z,17.89
2022-08-02T06:52:18.967Z,17.93
2022-08-02T06:53:08.441Z,17.96
2022-08-02T06:53:54.978Z,18.01
2022-08-02T06:54:42.462Z,18.05
2022-08-02T06:55:29.589Z,18.19
2022-08-02T06:56:16.602Z,18.24
2022-08-02T06:57:03.094Z,18.29
2022-08-02T06:57:49.635Z,18.30
2022-08-02T06:58:40.291Z,18.33
2022-08-02T06:59:26.791Z,18.31
2022-08-02T07:00:14.259Z,18.37
2022-08-02T07:01:00.867Z,18.38
2022-08-02T07:01:47.618Z,18.46
2022-08-02T07:02:36.447Z,18.47
2022-08-02T07:03:25.382Z,18.49
2022-08-02T07:04:12.219Z,18.55
2022-08-02T07:04:59.093Z,18.51
2022-08-02T07:05:48.402Z,18.63
2022-08-02T07:06:35.636Z,18.68
2022-08-02T07:07:22.729Z,18.68
2022-08-02T07:08:09.533Z,18.72
2022-08-02T07:09:19.328Z,18.73
2022-08-02T07:10:02.598Z,18.77
2022-08-02T07:10:49.171Z,18.79
2022-08-02T07:11:37.073Z,18.84
2022-08-02T07:12:23.565Z,18.85
2022-08-02T07:13:10.770Z,18.96
2022-08-02T07:13:57.353Z,19.02
2022-08-02T07:14:43.849Z,18.97
2022-08-02T07:15:30.470Z,18.98
2022-08-02T07:16:17.085Z,19.01
2022-08-02T07:17:04.342Z,19.06
2022-08-02T07:17:50.866Z,19.07
2022-08-02T07:18:37.332Z,19.16
2022-08-02T07:19:30.056Z,19.15
2022-08-02T07:20:24.328Z,19.20
2022-08-02T07:21:10.815Z,19.23
2022-08-02T07:22:01.744Z,19.34
2022-08-02T07:22:48.512Z,19.38
2022-08-02T07:23:35.024Z,19.42
2022-08-02T07:24:21.560Z,19.56
2022-08-02T07:25:08.720Z,19.52
2022-08-02T07:26:01.830Z,19.54
2022-08-02T07:27:10.805Z,19.61
2022-08-02T07:27:56.633Z,19.63
2022-08-02T07:28:45.588Z,19.78
2022-08-02T07:29:33.610Z,19.77
2022-08-02T07:30:33.103Z,19.85
2022-08-02T07:31:19.670Z,19.80
2022-08-02T07:32:06.421Z,19.77
2022-08-02T07:32:52.916Z,19.89
2022-08-02T07:33:41.548Z,19.94
2022-08-02T07:34:29.980Z,19.89
2022-08-02T07:35:19.271Z,19.91
2022-08-02T07:36:09.933Z,19.95
2022-08-02T07:37:03.906Z,19.98
2022-08-02T07:37:58.188Z,20.04
2022-08-02T07:38:49.804Z,20.07
2022-08-02T07:39:36.266Z,20.17
2022-08-02T07:40:24.811Z,20.28
2022-08-02T07:41:11.357Z,20.36
2022-08-02T07:41:58.058Z,20.42
2022-08-02T07:42:44.747Z,20.49
2022-08-02T07:43:31.372Z,20.49
2022-08-02T07:44:19.116Z,20.49
2022-08-02T07:45:06.237Z,20.53
2022-08-02T07:45:57.222Z,20.53
2022-08-02T07:46:46.485Z,20.58
2022-08-02T07:47:36.042Z,20.70
2022-08-02T07:48:22.658Z,20.67
2022-08-02T07:49:09.228Z,20.68
2022-08-02T07:49:55.862Z,20.73
2022-08-02T07:50:42.592Z,20.92
2022-08-02T07:51:29.272Z,21.02
2022-08-02T07:52:15.849Z,21.07
2022-08-02T07:53:02.361Z,21.18
2022-08-02T07:53:50.026Z,21.34
2022-08-02T07:54:38.184Z,21.27
2022-08-02T07:55:39.405Z,21.29
2022-08-02T07:56:27.339Z,21.33
2022-08-02T07:57:14.091Z,21.34
2022-08-02T07:58:00.627Z,21.37
2022-08-02T07:58:47.220Z,21.34
2022-08-02T07:59:33.853Z,21.38
2022-08-02T08:00:20.472Z,21.44
2022-08-02T08:01:07.028Z,21.47
2022-08-02T08:01:53.952Z,21.50
2022-08-02T08:02:40.795Z,21.55
2022-08-02T08:03:27.286Z,21.64
2022-08-02T08:04:13.794Z,21.78
2022-08-02T08:05:00.366Z,21.87
2022-08-02T08:05:47.063Z,21.80
2022-08-02T08:06:33.575Z,21.76
2022-08-02T08:07:20.256Z,21.74
2022-08-02T08:08:06.797Z,21.81
2022-08-02T08:08:53.253Z,21.86
2022-08-02T08:09:41.997Z,21.91
2022-08-02T08:10:28.588Z,21.90
2022-08-02T08:11:15.086Z,21.85
2022-08-02T08:12:01.540Z,21.91
2022-08-02T08:12:49.056Z,21.93
2022-08-02T08:13:35.643Z,21.99
2022-08-02T08:14:22.191Z,22.12
2022-08-02T08:15:09.207Z,22.16
2022-08-02T08:15:55.863Z,22.17
2022-08-02T08:16:42.544Z,22.33
2022-08-02T08:17:29.083Z,22.34
2022-08-02T08:18:15.524Z,22.33
2022-08-02T08:19:02.549Z,22.29
2022-08-02T08:19:50.908Z,22.42
2022-08-02T08:20:39.087Z,22.46
2022-08-02T08:21:25.698Z,22.57
2022-08-02T08:22:13.123Z,22.52
2022-08-02T08:23:01.318Z,22.64
2022-08-02T08:23:48.050Z,22.60
2022-08-02T08:24:34.492Z,22.71
2022-08-02T08:25:20.981Z,22.76
2022-08-02T08:26:11.724Z,22.72
2022-08-02T08:27:01.904Z,22.95
2022-08-02T08:27:53.007Z,22.96
2022-08-02T08:28:39.481Z,22.95
2022-08-02T08:29:26.564Z,22.91
2022-08-02T08:30:13.064Z,23.07
2022-08-02T08:30:59.784Z,23.09
2022-08-02T08:31:46.271Z,23.15
2022-08-02T08:32:32.804Z,23.11
2022-08-02T08:33:20.218Z,23.09
2022-08-02T08:34:06.706Z,23.21
2022-08-02T08:34:53.318Z,23.26
2022-08-02T08:35:40.129Z,23.25
2022-08-02T08:36:27.005Z,23.27
2022-08-02T08:37:17.075Z,23.36
2022-08-02T08:38:07.945Z,23.47
2022-08-02T08:38:54.668Z,23.59
2022-08-02T08:39:56.983Z,23.53
2022-08-02T08:40:45.147Z,23.67
2022-08-02T08:41:32.049Z,23.72
2022-08-02T08:42:18.670Z,23.73
2022-08-02T08:43:06.029Z,23.81
2022-08-02T08:43:53.445Z,23.85
2022-08-02T08:44:40.198Z,23.90
2022-08-02T08:45:26.908Z,24.03
2022-08-02T08:46:42.423Z,24.17
2022-08-02T08:47:36.919Z,24.33
2022-08-02T08:48:30.975Z,24.26
2022-08-02T08:49:31.295Z,24.26
2022-08-02T08:50:24.863Z,24.48
2022-08-02T08:51:18.839Z,24.55
2022-08-02T08:52:06.823Z,24.64
2022-08-02T08:53:07.559Z,24.62
2022-08-02T08:53:59.060Z,24.66
2022-08-02T08:54:49.997Z,24.61
2022-08-02T08:55:37.465Z,24.64
2022-08-02T08:56:24.365Z,24.74
2022-08-02T08:57:11.292Z,24.73
2022-08-02T08:58:03.415Z,24.66
2022-08-02T08:58:50.040Z,24.68
2022-08-02T08:59:39.291Z,24.68
2022-08-02T09:00:27.160Z,24.59
2022-08-02T09:01:15.294Z,24.67
2022-08-02T09:02:16.550Z,24.74
2022-08-02T09:03:09.838Z,24.94
2022-08-02T09:03:57.685Z,24.93
2022-08-02T09:04:52.988Z,25.03
2022-08-02T09:05:43.240Z,25.01
2022-08-02T09:06:29.782Z,24.87
2022-08-02T09:07:16.413Z,24.95
2022-08-02T09:08:03.489Z,24.90
2022-08-02T09:08:50.289Z,25.05
2022-08-02T09:09:36.751Z,25.09
2022-08-02T09:10:44.095Z,24.99
2022-08-02T09:11:30.980Z,25.03
2022-08-02T09:12:19.671Z,25.09
2022-08-02T09:13:37.857Z,25.06
2022-08-02T09:14:29.509Z,25.32
2022-08-02T09:15:24.937Z,25.28
2022-08-02T09:16:14.195Z,25.43
2022-08-02T09:17:10.148Z,25.44
2022-08-02T09:17:56.662Z,25.46
2022-08-02T09:18:46.175Z,25.56
2022-08-02T09:19:33.971Z,25.64
2022-08-02T09:20:20.647Z,25.62
2022-08-02T09:21:09.370Z,25.84
2022-08-02T09:22:06.595Z,25.86
2022-08-02T09:23:10.636Z,25.67
2022-08-02T09:23:57.547Z,25.77
2022-08-02T09:24:47.664Z,25.81
2022-08-02T09:25:34.998Z,25.99
2022-08-02T09:26:24.370Z,25.96
2022-08-02T09:27:18.534Z,25.87
2022-08-02T09:28:07.049Z,25.76
2022-08-02T09:29:01.751Z,25.60
2022-08-02T09:30:11.994Z,25.52
2022-08-02T09:31:21.678Z,25.35
2022-08-02T09:32:09.090Z,25.48
2022-08-02T09:32:56.079Z,25.52
2022-08-02T09:33:45.409Z,25.53
2022-08-02T09:34:53.491Z,25.52
2022-08-02T09:36:07.237Z,25.61
2022-08-02T09:36:48.328Z,26.00
2022-08-02T09:37:43.647Z,26.02
2022-08-02T09:38:35.207Z,26.12
2022-08-02T09:39:23.661Z,26.23
2022-08-02T09:40:11.912Z,26.26
2022-08-02T09:40:59.990Z,26.39
2022-08-02T09:41:46.678Z,26.44
2022-08-02T09:42:34.837Z,26.52
2022-08-02T09:43:22.399Z,26.50
2022-08-02T09:44:15.961Z,26.56
2022-08-02T09:45:04.129Z,26.53
2022-08-02T09:45:51.021Z,26.57
2022-08-02T09:46:42.180Z,26.65
2022-08-02T09:47:30.873Z,26.64
2022-08-02T09:48:17.666Z,26.80
2022-08-02T09:49:06.589Z,26.91
2022-08-02T09:49:58.491Z,27.03
2022-08-02T09:50:46.303Z,26.80
2022-08-02T09:51:40.573Z,26.83
2022-08-02T09:52:36.925Z,26.72
2022-08-02T09:53:31.302Z,26.85
2022-08-02T09:54:24.449Z,26.87
2022-08-02T09:55:12.056Z,26.86
2022-08-02T09:55:58.745Z,27.11
2022-08-02T09:56:50.069Z,27.26
2022-08-02T09:57:39.571Z,27.19
2022-08-02T09:58:26.177Z,27.29
2022-08-02T09:59:14.263Z,27.20
2022-08-02T10:00:00.977Z,27.40
2022-08-02T10:00:55.598Z,27.70
2022-08-02T10:01:51.183Z,27.85
2022-08-02T10:03:09.067Z,27.80
2022-08-02T10:04:17.356Z,27.86
2022-08-02T10:05:08.943Z,28.01
2022-08-02T10:06:02.196Z,28.08
2022-08-02T10:06:51.250Z,28.29
2022-08-02T10:07:38.169Z,28.34
2022-08-02T10:08:26.277Z,28.43
2022-08-02T10:09:13.390Z,28.26
2022-08-02T10:09:59.974Z,28.45
2022-08-02T10:10:48.266Z,28.60
2022-08-02T10:11:36.547Z,28.56
2022-08-02T10:12:24.775Z,28.56
2022-08-02T10:13:11.329Z,28.47
2022-08-02T10:13:59.146Z,28.41
2022-08-02T10:14:45.886Z,28.56
2022-08-02T10:15:32.948Z,28.55
2022-08-02T10:16:26.133Z,28.59
2022-08-02T10:17:15.412Z,28.66
2022-08-02T10:18:09.395Z,28.88
2022-08-02T10:19:10.099Z,29.08
2022-08-02T10:20:02.846Z,29.35
2022-08-02T10:20:54.578Z,29.53
2022-08-02T10:21:57.400Z,29.54
2022-08-02T10:22:44.299Z,29.61
2022-08-02T10:23:36.474Z,29.80
2022-08-02T10:24:28.269Z,29.79
2022-08-02T10:25:17.093Z,29.98
2022-08-02T10:26:04.697Z,29.95
2022-08-02T10:26:52.454Z,29.90
2022-08-02T10:28:02.918Z,29.60
2022-08-02T10:28:49.439Z,29.36
2022-08-02T10:29:53.505Z,29.49
2022-08-02T10:30:48.245Z,29.23
2022-08-02T10:31:41.747Z,29.13
2022-08-02T10:32:37.547Z,29.17
2022-08-02T10:33:27.193Z,29.34
2022-08-02T10:34:20.107Z,29.40
2022-08-02T10:35:19.784Z,29.59
2022-08-02T10:36:14.659Z,29.50
2022-08-02T10:37:06.741Z,29.39
2022-08-02T10:38:01.036Z,29.44
2022-08-02T10:38:47.981Z,29.26
2022-08-02T10:39:42.060Z,29.29
2022-08-02T10:40:50.795Z,28.87
2022-08-02T10:41:55.125Z,28.56
2022-08-02T10:42:50.267Z,28.55
2022-08-02T10:43:36.671Z,28.51
2022-08-02T10:44:32.363Z,28.52
2022-08-02T10:45:21.817Z,28.66
2022-08-02T10:46:20.357Z,28.74
2022-08-02T10:47:22.798Z,28.73
2022-08-02T10:48:12.218Z,28.70
2022-08-02T10:50:45.506Z,28.71
2022-08-02T10:52:02.945Z,28.52
2022-08-02T10:53:28.177Z,28.32
2022-08-02T10:54:21.801Z,28.28
2022-08-02T10:55:21.060Z,28.23
2022-08-02T10:56:09.554Z,28.31
2022-08-02T10:56:57.940Z,28.36